sensor_id;sensor_type;location;lat;lon;timestamp;temperature;humidity
65406;DHT22;52016;51.228;-2.322;2023-02-25T00:03:07;4.80;75.30
65406;DHT22;52016;51.228;-2.322;2023-02-25T00:06:48;4.70;75.30
65406;DHT22;52016;51.228;-2.322;2023-02-25T00:10:30;4.70;75.30
65406;DHT22;52016;51.228;-2.322;2023-02-25T00:14:12;4.70;75.30
65406;DHT22;52016;51.228;-2.322;2023-02-25T00:17:55;4.70;75.30
65406;DHT22;52016;51.228;-2.322;2023-02-25T00:21:37;4.70;75.30
65406;DHT22;52016;51.228;-2.322;2023-02-25T00:25:19;4.60;75.30
65406;DHT22;52016;51.228;-2.322;2023-02-25T00:29:00;4.60;75.30
65406;DHT22;52016;51.228;-2.322;2023-02-25T00:32:42;4.60;75.20
65406;DHT22;52016;51.228;-2.322;2023-02-25T00:36:25;4.60;75.20
65406;DHT22;52016;51.228;-2.322;2023-02-25T00:40:08;4.50;75.20
65406;DHT22;52016;51.228;-2.322;2023-02-25T00:43:59;4.50;75.20
65406;DHT22;52016;51.228;-2.322;2023-02-25T00:47:42;4.50;75.20
65406;DHT22;52016;51.228;-2.322;2023-02-25T00:51:27;4.40;75.20
65406;DHT22;52016;51.228;-2.322;2023-02-25T00:55:09;4.40;75.20
65406;DHT22;52016;51.228;-2.322;2023-02-25T00:58:51;4.30;75.20
65406;DHT22;52016;51.228;-2.322;2023-02-25T01:02:33;4.30;75.20
65406;DHT22;52016;51.228;-2.322;2023-02-25T01:06:15;4.30;75.20
65406;DHT22;52016;51.228;-2.322;2023-02-25T01:09:57;4.30;75.20
65406;DHT22;52016;51.228;-2.322;2023-02-25T01:13:39;4.30;75.30
65406;DHT22;52016;51.228;-2.322;2023-02-25T01:17:21;4.30;75.30
65406;DHT22;52016;51.228;-2.322;2023-02-25T01:21:03;4.20;75.20
65406;DHT22;52016;51.228;-2.322;2023-02-25T01:24:46;4.20;75.30
65406;DHT22;52016;51.228;-2.322;2023-02-25T01:28:28;4.20;75.30
65406;DHT22;52016;51.228;-2.322;2023-02-25T01:32:12;4.20;75.30
65406;DHT22;52016;51.228;-2.322;2023-02-25T01:35:54;4.20;75.30
65406;DHT22;52016;51.228;-2.322;2023-02-25T01:39:38;4.20;75.10
65406;DHT22;52016;51.228;-2.322;2023-02-25T01:43:20;4.20;75.10
65406;DHT22;52016;51.228;-2.322;2023-02-25T01:47:03;4.30;75.10
65406;DHT22;52016;51.228;-2.322;2023-02-25T01:50:51;4.20;75.00
65406;DHT22;52016;51.228;-2.322;2023-02-25T01:54:35;4.20;75.00
65406;DHT22;52016;51.228;-2.322;2023-02-25T01:58:17;4.10;75.00
65406;DHT22;52016;51.228;-2.322;2023-02-25T02:02:00;4.10;75.00
65406;DHT22;52016;51.228;-2.322;2023-02-25T02:09:48;4.10;75.00
65406;DHT22;52016;51.228;-2.322;2023-02-25T02:13:46;4.10;74.90
65406;DHT22;52016;51.228;-2.322;2023-02-25T02:21:44;4.10;74.90
65406;DHT22;52016;51.228;-2.322;2023-02-25T02:33:41;3.90;74.90
65406;DHT22;52016;51.228;-2.322;2023-02-25T02:45:15;3.80;75.00
65406;DHT22;52016;51.228;-2.322;2023-02-25T02:49:07;3.80;75.10
65406;DHT22;52016;51.228;-2.322;2023-02-25T02:52:52;3.80;74.90
65406;DHT22;52016;51.228;-2.322;2023-02-25T02:56:39;3.80;74.80
65406;DHT22;52016;51.228;-2.322;2023-02-25T03:00:24;3.80;74.70
65406;DHT22;52016;51.228;-2.322;2023-02-25T03:04:12;3.80;74.60
65406;DHT22;52016;51.228;-2.322;2023-02-25T03:08:03;3.80;74.40
65406;DHT22;52016;51.228;-2.322;2023-02-25T03:11:46;3.80;74.30
65406;DHT22;52016;51.228;-2.322;2023-02-25T03:15:28;3.80;74.40
65406;DHT22;52016;51.228;-2.322;2023-02-25T03:19:15;3.70;74.50
65406;DHT22;52016;51.228;-2.322;2023-02-25T03:23:01;3.60;74.50
65406;DHT22;52016;51.228;-2.322;2023-02-25T03:26:44;3.60;74.60
65406;DHT22;52016;51.228;-2.322;2023-02-25T03:30:36;3.60;74.50
65406;DHT22;52016;51.228;-2.322;2023-02-25T03:34:34;3.50;74.50
65406;DHT22;52016;51.228;-2.322;2023-02-25T03:38:19;3.50;74.50
65406;DHT22;52016;51.228;-2.322;2023-02-25T03:42:03;3.50;74.40
65406;DHT22;52016;51.228;-2.322;2023-02-25T03:45:47;3.40;74.40
65406;DHT22;52016;51.228;-2.322;2023-02-25T03:49:44;3.40;74.50
65406;DHT22;52016;51.228;-2.322;2023-02-25T03:53:28;3.30;74.50
65406;DHT22;52016;51.228;-2.322;2023-02-25T03:57:10;3.40;74.50
65406;DHT22;52016;51.228;-2.322;2023-02-25T04:00:55;3.30;74.50
65406;DHT22;52016;51.228;-2.322;2023-02-25T04:04:38;3.30;74.40
65406;DHT22;52016;51.228;-2.322;2023-02-25T04:08:20;3.30;74.50
65406;DHT22;52016;51.228;-2.322;2023-02-25T04:12:01;3.20;74.50
65406;DHT22;52016;51.228;-2.322;2023-02-25T04:15:43;3.20;74.60
65406;DHT22;52016;51.228;-2.322;2023-02-25T04:19:26;3.20;74.60
65406;DHT22;52016;51.228;-2.322;2023-02-25T04:23:15;3.10;74.70
65406;DHT22;52016;51.228;-2.322;2023-02-25T04:26:57;3.10;74.60
65406;DHT22;52016;51.228;-2.322;2023-02-25T04:30:42;3.10;74.60
65406;DHT22;52016;51.228;-2.322;2023-02-25T04:34:24;3.00;74.80
65406;DHT22;52016;51.228;-2.322;2023-02-25T04:38:06;3.00;74.90
65406;DHT22;52016;51.228;-2.322;2023-02-25T04:41:49;3.00;75.00
65406;DHT22;52016;51.228;-2.322;2023-02-25T04:45:31;2.90;75.20
65406;DHT22;52016;51.228;-2.322;2023-02-25T04:49:13;2.80;75.30
65406;DHT22;52016;51.228;-2.322;2023-02-25T04:52:55;2.80;75.40
65406;DHT22;52016;51.228;-2.322;2023-02-25T04:56:39;2.70;75.50
65406;DHT22;52016;51.228;-2.322;2023-02-25T05:00:22;2.70;75.60
65406;DHT22;52016;51.228;-2.322;2023-02-25T05:04:10;2.60;75.70
65406;DHT22;52016;51.228;-2.322;2023-02-25T05:07:52;2.60;75.80
65406;DHT22;52016;51.228;-2.322;2023-02-25T05:11:33;2.60;75.80
65406;DHT22;52016;51.228;-2.322;2023-02-25T05:15:15;2.70;75.80
65406;DHT22;52016;51.228;-2.322;2023-02-25T05:18:57;2.60;75.80
65406;DHT22;52016;51.228;-2.322;2023-02-25T05:22:40;2.70;75.80
65406;DHT22;52016;51.228;-2.322;2023-02-25T05:26:23;2.80;75.80
65406;DHT22;52016;51.228;-2.322;2023-02-25T05:30:06;2.80;75.70
65406;DHT22;52016;51.228;-2.322;2023-02-25T05:33:48;2.80;75.70
65406;DHT22;52016;51.228;-2.322;2023-02-25T05:37:31;2.80;75.60
65406;DHT22;52016;51.228;-2.322;2023-02-25T05:41:13;2.80;75.60
65406;DHT22;52016;51.228;-2.322;2023-02-25T05:44:55;2.90;75.70
65406;DHT22;52016;51.228;-2.322;2023-02-25T05:48:41;2.90;75.70
65406;DHT22;52016;51.228;-2.322;2023-02-25T05:52:23;3.00;75.70
65406;DHT22;52016;51.228;-2.322;2023-02-25T05:56:07;3.00;75.60
65406;DHT22;52016;51.228;-2.322;2023-02-25T05:59:50;3.00;75.60
65406;DHT22;52016;51.228;-2.322;2023-02-25T06:03:32;3.00;75.70
65406;DHT22;52016;51.228;-2.322;2023-02-25T06:07:14;3.00;75.80
65406;DHT22;52016;51.228;-2.322;2023-02-25T06:10:55;3.00;75.90
65406;DHT22;52016;51.228;-2.322;2023-02-25T06:14:38;3.10;75.90
65406;DHT22;52016;51.228;-2.322;2023-02-25T06:18:20;3.10;75.90
65406;DHT22;52016;51.228;-2.322;2023-02-25T06:22:02;3.20;75.90
65406;DHT22;52016;51.228;-2.322;2023-02-25T06:25:43;3.30;75.90
65406;DHT22;52016;51.228;-2.322;2023-02-25T06:29:25;3.30;75.80
65406;DHT22;52016;51.228;-2.322;2023-02-25T06:33:07;3.40;75.80
65406;DHT22;52016;51.228;-2.322;2023-02-25T06:36:49;3.40;75.70
65406;DHT22;52016;51.228;-2.322;2023-02-25T06:40:32;3.50;75.50
65406;DHT22;52016;51.228;-2.322;2023-02-25T06:44:14;3.40;75.50
65406;DHT22;52016;51.228;-2.322;2023-02-25T06:47:56;3.40;75.50
65406;DHT22;52016;51.228;-2.322;2023-02-25T06:51:39;3.50;75.60
65406;DHT22;52016;51.228;-2.322;2023-02-25T06:55:20;3.50;75.60
65406;DHT22;52016;51.228;-2.322;2023-02-25T06:59:02;3.50;75.60
65406;DHT22;52016;51.228;-2.322;2023-02-25T07:02:44;3.60;75.60
65406;DHT22;52016;51.228;-2.322;2023-02-25T07:06:26;3.60;75.60
65406;DHT22;52016;51.228;-2.322;2023-02-25T07:10:10;3.60;75.70
65406;DHT22;52016;51.228;-2.322;2023-02-25T07:13:52;3.60;75.70
65406;DHT22;52016;51.228;-2.322;2023-02-25T07:17:33;3.70;75.70
65406;DHT22;52016;51.228;-2.322;2023-02-25T07:21:15;3.70;75.70
65406;DHT22;52016;51.228;-2.322;2023-02-25T07:24:58;3.70;75.70
65406;DHT22;52016;51.228;-2.322;2023-02-25T07:28:41;3.70;75.70
65406;DHT22;52016;51.228;-2.322;2023-02-25T07:32:23;3.70;75.70
65406;DHT22;52016;51.228;-2.322;2023-02-25T07:36:06;3.70;75.60
65406;DHT22;52016;51.228;-2.322;2023-02-25T07:39:48;3.60;75.60
65406;DHT22;52016;51.228;-2.322;2023-02-25T07:43:29;3.60;75.60
65406;DHT22;52016;51.228;-2.322;2023-02-25T07:47:11;3.50;75.60
65406;DHT22;52016;51.228;-2.322;2023-02-25T07:50:53;3.40;75.70
65406;DHT22;52016;51.228;-2.322;2023-02-25T07:54:35;3.40;75.80
65406;DHT22;52016;51.228;-2.322;2023-02-25T07:58:17;3.50;75.80
65406;DHT22;52016;51.228;-2.322;2023-02-25T08:01:59;3.50;75.80
65406;DHT22;52016;51.228;-2.322;2023-02-25T08:05:41;3.60;75.70
65406;DHT22;52016;51.228;-2.322;2023-02-25T08:09:22;3.60;75.70
65406;DHT22;52016;51.228;-2.322;2023-02-25T08:13:04;3.60;75.80
65406;DHT22;52016;51.228;-2.322;2023-02-25T08:16:47;3.60;75.70
65406;DHT22;52016;51.228;-2.322;2023-02-25T08:20:29;3.70;75.80
65406;DHT22;52016;51.228;-2.322;2023-02-25T08:24:10;3.80;75.80
65406;DHT22;52016;51.228;-2.322;2023-02-25T08:27:52;3.90;75.80
65406;DHT22;52016;51.228;-2.322;2023-02-25T08:31:34;4.00;75.70
65406;DHT22;52016;51.228;-2.322;2023-02-25T08:35:16;4.10;75.70
65406;DHT22;52016;51.228;-2.322;2023-02-25T08:38:59;4.20;75.70
65406;DHT22;52016;51.228;-2.322;2023-02-25T08:42:40;4.30;75.50
65406;DHT22;52016;51.228;-2.322;2023-02-25T08:46:24;4.30;75.50
65406;DHT22;52016;51.228;-2.322;2023-02-25T08:50:07;4.40;75.50
65406;DHT22;52016;51.228;-2.322;2023-02-25T08:53:50;4.40;75.50
65406;DHT22;52016;51.228;-2.322;2023-02-25T08:57:32;4.50;75.40
65406;DHT22;52016;51.228;-2.322;2023-02-25T09:01:15;4.60;75.50
65406;DHT22;52016;51.228;-2.322;2023-02-25T09:04:58;4.60;75.30
65406;DHT22;52016;51.228;-2.322;2023-02-25T09:08:40;4.80;75.30
65406;DHT22;52016;51.228;-2.322;2023-02-25T09:12:21;4.80;75.20
65406;DHT22;52016;51.228;-2.322;2023-02-25T09:16:05;4.80;75.10
65406;DHT22;52016;51.228;-2.322;2023-02-25T09:19:47;4.90;75.20
65406;DHT22;52016;51.228;-2.322;2023-02-25T09:23:29;5.00;75.10
65406;DHT22;52016;51.228;-2.322;2023-02-25T09:27:11;5.10;75.00
65406;DHT22;52016;51.228;-2.322;2023-02-25T09:30:55;5.10;75.00
65406;DHT22;52016;51.228;-2.322;2023-02-25T09:34:37;5.20;75.00
65406;DHT22;52016;51.228;-2.322;2023-02-25T09:38:19;5.30;75.00
65406;DHT22;52016;51.228;-2.322;2023-02-25T09:42:07;5.30;74.90
65406;DHT22;52016;51.228;-2.322;2023-02-25T09:45:51;5.50;74.80
65406;DHT22;52016;51.228;-2.322;2023-02-25T09:49:58;5.50;74.70
65406;DHT22;52016;51.228;-2.322;2023-02-25T09:53:44;5.60;74.40
65406;DHT22;52016;51.228;-2.322;2023-02-25T09:57:28;5.70;74.50
65406;DHT22;52016;51.228;-2.322;2023-02-25T10:01:17;5.80;74.30
65406;DHT22;52016;51.228;-2.322;2023-02-25T10:16:42;6.10;73.90
65406;DHT22;52016;51.228;-2.322;2023-02-25T10:21:03;6.20;73.80
65406;DHT22;52016;51.228;-2.322;2023-02-25T10:24:56;6.30;73.60
65406;DHT22;52016;51.228;-2.322;2023-02-25T10:28:41;6.30;74.00
65406;DHT22;52016;51.228;-2.322;2023-02-25T10:32:27;6.50;73.80
65406;DHT22;52016;51.228;-2.322;2023-02-25T10:36:29;6.70;73.80
65406;DHT22;52016;51.228;-2.322;2023-02-25T10:40:18;6.80;73.70
65406;DHT22;52016;51.228;-2.322;2023-02-25T10:44:01;7.00;73.30
65406;DHT22;52016;51.228;-2.322;2023-02-25T10:47:46;7.10;73.10
65406;DHT22;52016;51.228;-2.322;2023-02-25T10:51:29;7.20;72.70
65406;DHT22;52016;51.228;-2.322;2023-02-25T10:55:27;7.30;72.90
65406;DHT22;52016;51.228;-2.322;2023-02-25T11:03:20;7.40;71.30
65406;DHT22;52016;51.228;-2.322;2023-02-25T11:07:23;7.50;71.80
65406;DHT22;52016;51.228;-2.322;2023-02-25T11:11:20;7.60;71.30
65406;DHT22;52016;51.228;-2.322;2023-02-25T11:19:58;7.60;71.00
65406;DHT22;52016;51.228;-2.322;2023-02-25T11:23:44;7.60;70.60
65406;DHT22;52016;51.228;-2.322;2023-02-25T11:27:36;7.60;71.10
65406;DHT22;52016;51.228;-2.322;2023-02-25T11:31:28;7.70;70.70
65406;DHT22;52016;51.228;-2.322;2023-02-25T11:35:20;7.70;70.80
65406;DHT22;52016;51.228;-2.322;2023-02-25T11:39:24;7.70;70.30
65406;DHT22;52016;51.228;-2.322;2023-02-25T11:43:17;7.80;70.40
65406;DHT22;52016;51.228;-2.322;2023-02-25T11:55:06;8.00;69.30
65406;DHT22;52016;51.228;-2.322;2023-02-25T12:51:46;8.00;68.30
65406;DHT22;52016;51.228;-2.322;2023-02-25T12:56:06;8.00;68.40
65406;DHT22;52016;51.228;-2.322;2023-02-25T13:13:05;7.90;67.10
65406;DHT22;52016;51.228;-2.322;2023-02-25T13:32:27;7.90;67.90
65406;DHT22;52016;51.228;-2.322;2023-02-25T13:40:23;8.40;67.70
65406;DHT22;52016;51.228;-2.322;2023-02-25T13:44:39;8.60;67.40
65406;DHT22;52016;51.228;-2.322;2023-02-25T13:53:37;8.80;65.90
65406;DHT22;52016;51.228;-2.322;2023-02-25T14:01:08;8.70;66.30
65406;DHT22;52016;51.228;-2.322;2023-02-25T14:05:35;8.80;65.90
65406;DHT22;52016;51.228;-2.322;2023-02-25T14:25:52;8.90;64.10
65406;DHT22;52016;51.228;-2.322;2023-02-25T14:38:12;8.70;63.20
65406;DHT22;52016;51.228;-2.322;2023-02-25T14:50:19;8.70;63.60
65406;DHT22;52016;51.228;-2.322;2023-02-25T14:54:06;8.60;63.70
65406;DHT22;52016;51.228;-2.322;2023-02-25T15:10:23;8.10;63.90
65406;DHT22;52016;51.228;-2.322;2023-02-25T15:18:49;7.90;63.60
65406;DHT22;52016;51.228;-2.322;2023-02-25T15:26:53;7.90;63.70
65406;DHT22;52016;51.228;-2.322;2023-02-25T15:31:03;7.90;64.20
65406;DHT22;52016;51.228;-2.322;2023-02-25T15:35:19;8.00;63.10
65406;DHT22;52016;51.228;-2.322;2023-02-25T15:39:02;8.30;63.00
65406;DHT22;52016;51.228;-2.322;2023-02-25T15:42:52;8.50;64.10
65406;DHT22;52016;51.228;-2.322;2023-02-25T15:54:44;8.60;62.50
65406;DHT22;52016;51.228;-2.322;2023-02-25T16:06:17;8.80;63.30
65406;DHT22;52016;51.228;-2.322;2023-02-25T16:10:06;8.80;63.40
65406;DHT22;52016;51.228;-2.322;2023-02-25T16:13:48;8.60;63.40
65406;DHT22;52016;51.228;-2.322;2023-02-25T16:17:33;8.40;63.30
65406;DHT22;52016;51.228;-2.322;2023-02-25T16:21:36;8.30;63.60
65406;DHT22;52016;51.228;-2.322;2023-02-25T16:25:27;8.20;63.50
65406;DHT22;52016;51.228;-2.322;2023-02-25T16:33:48;8.00;63.70
65406;DHT22;52016;51.228;-2.322;2023-02-25T16:41:21;7.90;64.00
65406;DHT22;52016;51.228;-2.322;2023-02-25T16:45:32;7.90;64.20
65406;DHT22;52016;51.228;-2.322;2023-02-25T16:49:26;8.00;64.10
65406;DHT22;52016;51.228;-2.322;2023-02-25T16:53:16;8.00;64.20
65406;DHT22;52016;51.228;-2.322;2023-02-25T16:57:00;8.10;64.50
65406;DHT22;52016;51.228;-2.322;2023-02-25T17:00:55;8.40;64.40
65406;DHT22;52016;51.228;-2.322;2023-02-25T17:04:37;8.60;63.90
65406;DHT22;52016;51.228;-2.322;2023-02-25T17:08:19;8.60;63.90
65406;DHT22;52016;51.228;-2.322;2023-02-25T17:12:02;8.40;64.00
65406;DHT22;52016;51.228;-2.322;2023-02-25T17:15:44;8.30;63.90
65406;DHT22;52016;51.228;-2.322;2023-02-25T17:19:26;8.10;64.10
65406;DHT22;52016;51.228;-2.322;2023-02-25T17:23:11;8.10;64.20
65406;DHT22;52016;51.228;-2.322;2023-02-25T17:26:53;8.00;64.30
65406;DHT22;52016;51.228;-2.322;2023-02-25T17:30:41;7.90;64.30
65406;DHT22;52016;51.228;-2.322;2023-02-25T17:34:31;7.80;64.40
65406;DHT22;52016;51.228;-2.322;2023-02-25T17:38:16;7.80;64.30
65406;DHT22;52016;51.228;-2.322;2023-02-25T17:41:58;7.80;63.70
65406;DHT22;52016;51.228;-2.322;2023-02-25T17:49:30;7.50;64.50
65406;DHT22;52016;51.228;-2.322;2023-02-25T17:57:21;7.30;64.60
65406;DHT22;52016;51.228;-2.322;2023-02-25T18:01:03;7.30;64.10
65406;DHT22;52016;51.228;-2.322;2023-02-25T18:04:46;7.30;64.60
65406;DHT22;52016;51.228;-2.322;2023-02-25T18:08:50;7.20;64.70
65406;DHT22;52016;51.228;-2.322;2023-02-25T18:12:34;7.10;64.40
65406;DHT22;52016;51.228;-2.322;2023-02-25T18:16:35;7.00;64.70
65406;DHT22;52016;51.228;-2.322;2023-02-25T18:20:41;6.90;64.80
65406;DHT22;52016;51.228;-2.322;2023-02-25T18:24:50;6.80;64.90
65406;DHT22;52016;51.228;-2.322;2023-02-25T18:28:33;6.80;64.90
65406;DHT22;52016;51.228;-2.322;2023-02-25T18:32:15;6.60;65.10
65406;DHT22;52016;51.228;-2.322;2023-02-25T18:35:57;6.50;65.30
65406;DHT22;52016;51.228;-2.322;2023-02-25T18:39:39;6.40;65.40
65406;DHT22;52016;51.228;-2.322;2023-02-25T18:43:24;6.40;65.60
65406;DHT22;52016;51.228;-2.322;2023-02-25T18:47:09;6.30;65.70
65406;DHT22;52016;51.228;-2.322;2023-02-25T18:50:51;6.30;65.70
65406;DHT22;52016;51.228;-2.322;2023-02-25T18:54:33;6.30;65.80
65406;DHT22;52016;51.228;-2.322;2023-02-25T18:58:17;6.20;65.90
65406;DHT22;52016;51.228;-2.322;2023-02-25T19:02:00;6.10;66.00
65406;DHT22;52016;51.228;-2.322;2023-02-25T19:05:41;6.00;66.20
65406;DHT22;52016;51.228;-2.322;2023-02-25T19:09:24;5.90;66.30
65406;DHT22;52016;51.228;-2.322;2023-02-25T19:13:11;5.80;66.40
65406;DHT22;52016;51.228;-2.322;2023-02-25T19:16:55;5.80;66.50
65406;DHT22;52016;51.228;-2.322;2023-02-25T19:20:38;5.80;66.70
65406;DHT22;52016;51.228;-2.322;2023-02-25T19:24:20;5.80;66.70
65406;DHT22;52016;51.228;-2.322;2023-02-25T19:28:03;5.80;66.80
65406;DHT22;52016;51.228;-2.322;2023-02-25T19:31:45;5.80;66.80
65406;DHT22;52016;51.228;-2.322;2023-02-25T19:35:28;5.80;66.80
65406;DHT22;52016;51.228;-2.322;2023-02-25T19:39:10;5.80;66.80
65406;DHT22;52016;51.228;-2.322;2023-02-25T19:42:51;5.80;66.80
65406;DHT22;52016;51.228;-2.322;2023-02-25T19:46:33;5.80;66.80
65406;DHT22;52016;51.228;-2.322;2023-02-25T19:50:17;5.80;66.90
65406;DHT22;52016;51.228;-2.322;2023-02-25T19:53:59;5.70;66.90
65406;DHT22;52016;51.228;-2.322;2023-02-25T19:57:41;5.70;67.00
65406;DHT22;52016;51.228;-2.322;2023-02-25T20:01:23;5.60;67.00
65406;DHT22;52016;51.228;-2.322;2023-02-25T20:05:05;5.50;67.10
65406;DHT22;52016;51.228;-2.322;2023-02-25T20:08:48;5.40;67.20
65406;DHT22;52016;51.228;-2.322;2023-02-25T20:12:36;5.40;67.20
65406;DHT22;52016;51.228;-2.322;2023-02-25T20:16:18;5.40;67.40
65406;DHT22;52016;51.228;-2.322;2023-02-25T20:20:02;5.30;67.40
65406;DHT22;52016;51.228;-2.322;2023-02-25T20:23:44;5.40;67.50
65406;DHT22;52016;51.228;-2.322;2023-02-25T20:27:26;5.40;67.60
65406;DHT22;52016;51.228;-2.322;2023-02-25T20:31:11;5.50;67.60
65406;DHT22;52016;51.228;-2.322;2023-02-25T20:34:53;5.40;67.60
65406;DHT22;52016;51.228;-2.322;2023-02-25T20:38:37;5.40;67.70
65406;DHT22;52016;51.228;-2.322;2023-02-25T20:42:23;5.40;67.70
65406;DHT22;52016;51.228;-2.322;2023-02-25T20:46:06;5.30;67.80
65406;DHT22;52016;51.228;-2.322;2023-02-25T20:49:48;5.30;67.90
65406;DHT22;52016;51.228;-2.322;2023-02-25T20:53:30;5.20;68.10
65406;DHT22;52016;51.228;-2.322;2023-02-25T20:57:14;5.10;68.20
65406;DHT22;52016;51.228;-2.322;2023-02-25T21:00:56;5.00;68.30
65406;DHT22;52016;51.228;-2.322;2023-02-25T21:04:38;5.00;68.40
65406;DHT22;52016;51.228;-2.322;2023-02-25T21:08:20;4.90;68.70
65406;DHT22;52016;51.228;-2.322;2023-02-25T21:12:02;4.80;68.70
65406;DHT22;52016;51.228;-2.322;2023-02-25T21:15:44;4.80;68.80
65406;DHT22;52016;51.228;-2.322;2023-02-25T21:19:26;4.80;69.00
65406;DHT22;52016;51.228;-2.322;2023-02-25T21:23:11;4.80;69.10
65406;DHT22;52016;51.228;-2.322;2023-02-25T21:26:53;4.70;69.20
65406;DHT22;52016;51.228;-2.322;2023-02-25T21:30:35;4.70;69.40
65406;DHT22;52016;51.228;-2.322;2023-02-25T21:34:18;4.60;69.40
65406;DHT22;52016;51.228;-2.322;2023-02-25T21:38:00;4.60;69.60
65406;DHT22;52016;51.228;-2.322;2023-02-25T21:41:43;4.60;69.60
65406;DHT22;52016;51.228;-2.322;2023-02-25T21:45:25;4.50;69.50
65406;DHT22;52016;51.228;-2.322;2023-02-25T21:49:07;4.50;69.60
65406;DHT22;52016;51.228;-2.322;2023-02-25T21:52:51;4.50;69.70
65406;DHT22;52016;51.228;-2.322;2023-02-25T21:56:33;4.40;69.70
65406;DHT22;52016;51.228;-2.322;2023-02-25T22:00:15;4.40;69.80
65406;DHT22;52016;51.228;-2.322;2023-02-25T22:03:57;4.30;69.80
65406;DHT22;52016;51.228;-2.322;2023-02-25T22:07:39;4.30;70.00
65406;DHT22;52016;51.228;-2.322;2023-02-25T22:11:30;4.20;70.10
65406;DHT22;52016;51.228;-2.322;2023-02-25T22:15:12;4.20;70.20
65406;DHT22;52016;51.228;-2.322;2023-02-25T22:18:54;4.10;70.30
65406;DHT22;52016;51.228;-2.322;2023-02-25T22:22:37;4.10;70.40
65406;DHT22;52016;51.228;-2.322;2023-02-25T22:26:22;4.10;70.40
65406;DHT22;52016;51.228;-2.322;2023-02-25T22:30:05;4.10;70.40
65406;DHT22;52016;51.228;-2.322;2023-02-25T22:33:47;4.00;70.50
65406;DHT22;52016;51.228;-2.322;2023-02-25T22:37:30;4.00;70.60
65406;DHT22;52016;51.228;-2.322;2023-02-25T22:41:25;3.90;70.60
65406;DHT22;52016;51.228;-2.322;2023-02-25T22:45:07;3.90;70.90
65406;DHT22;52016;51.228;-2.322;2023-02-25T22:48:49;3.90;70.70
65406;DHT22;52016;51.228;-2.322;2023-02-25T22:52:32;3.90;70.70
65406;DHT22;52016;51.228;-2.322;2023-02-25T22:56:15;3.80;70.80
65406;DHT22;52016;51.228;-2.322;2023-02-25T22:59:57;3.80;70.80
65406;DHT22;52016;51.228;-2.322;2023-02-25T23:03:39;3.80;70.90
65406;DHT22;52016;51.228;-2.322;2023-02-25T23:07:21;3.80;70.90
65406;DHT22;52016;51.228;-2.322;2023-02-25T23:11:24;3.80;71.00
65406;DHT22;52016;51.228;-2.322;2023-02-25T23:15:07;3.80;71.50
65406;DHT22;52016;51.228;-2.322;2023-02-25T23:18:50;3.70;71.10
65406;DHT22;52016;51.228;-2.322;2023-02-25T23:22:32;3.70;71.00
65406;DHT22;52016;51.228;-2.322;2023-02-25T23:26:18;3.70;71.20
65406;DHT22;52016;51.228;-2.322;2023-02-25T23:30:00;3.70;71.20
65406;DHT22;52016;51.228;-2.322;2023-02-25T23:33:42;3.70;71.30
65406;DHT22;52016;51.228;-2.322;2023-02-25T23:37:24;3.70;71.30
65406;DHT22;52016;51.228;-2.322;2023-02-25T23:41:06;3.60;71.40
65406;DHT22;52016;51.228;-2.322;2023-02-25T23:44:47;3.60;71.50
65406;DHT22;52016;51.228;-2.322;2023-02-25T23:48:29;3.60;71.60
65406;DHT22;52016;51.228;-2.322;2023-02-25T23:52:11;3.50;71.70
65406;DHT22;52016;51.228;-2.322;2023-02-25T23:55:53;3.50;71.70
65406;DHT22;52016;51.228;-2.322;2023-02-25T23:59:35;3.50;71.80
